createdAt,value
2022-11-25T00:01:32.456Z,8.40
2022-11-25T00:03:59.927Z,8.40
2022-11-25T00:06:29.964Z,8.30
2022-11-25T00:09:03.772Z,8.30
2022-11-25T00:11:31.304Z,8.30
2022-11-25T00:13:58.768Z,8.30
2022-11-25T00:16:26.689Z,8.20
2022-11-25T00:18:56.224Z,8.20
2022-11-25T00:21:26.367Z,8.20
2022-11-25T00:23:56.146Z,8.20
2022-11-25T00:26:24.984Z,8.10
2022-11-25T00:28:53.528Z,8.10
2022-11-25T00:31:23.753Z,8.10
2022-11-25T00:33:52.210Z,8.10
2022-11-25T00:36:31.280Z,8.00
2022-11-25T00:39:04.249Z,8.00
2022-11-25T00:41:50.235Z,8.00
2022-11-25T00:44:39.327Z,8.40
2022-11-25T00:47:11.567Z,7.90
2022-11-25T00:49:40.975Z,7.90
2022-11-25T00:52:09.269Z,7.90
2022-11-25T00:54:37.310Z,7.90
2022-11-25T00:57:04.857Z,7.90
2022-11-25T00:59:32.436Z,7.90
2022-11-25T01:02:00.120Z,7.90
2022-11-25T01:04:27.525Z,7.80
2022-11-25T01:06:56.999Z,7.80
2022-11-25T01:09:24.598Z,7.80
2022-11-25T01:11:52.203Z,7.80
2022-11-25T01:14:22.758Z,7.80
2022-11-25T01:16:51.596Z,7.80
2022-11-25T01:19:20.147Z,7.80
2022-11-25T01:21:47.541Z,7.80
2022-11-25T01:24:16.108Z,7.70
2022-11-25T01:26:45.000Z,7.70
2022-11-25T01:29:18.215Z,7.70
2022-11-25T01:31:46.732Z,7.70
2022-11-25T01:34:21.714Z,7.70
2022-11-25T01:36:49.222Z,7.70
2022-11-25T01:39:31.698Z,7.70
2022-11-25T01:42:00.072Z,7.70
2022-11-25T01:44:29.483Z,7.70
2022-11-25T01:47:18.687Z,7.70
2022-11-25T01:50:04.940Z,7.70
2022-11-25T01:52:37.906Z,7.70
2022-11-25T01:55:14.108Z,7.70
2022-11-25T01:57:47.347Z,7.70
2022-11-25T02:00:15.669Z,7.70
2022-11-25T02:02:47.923Z,7.70
2022-11-25T02:05:18.488Z,7.70
2022-11-25T02:07:49.068Z,7.70
2022-11-25T02:10:23.412Z,7.80
2022-11-25T02:12:51.806Z,7.70
2022-11-25T02:15:21.486Z,7.80
2022-11-25T02:17:49.391Z,7.80
2022-11-25T02:20:19.786Z,7.80
2022-11-25T02:22:50.342Z,7.80
2022-11-25T02:25:22.546Z,7.80
2022-11-25T02:27:58.704Z,7.80
2022-11-25T02:30:26.459Z,7.80
2022-11-25T02:32:54.506Z,7.80
2022-11-25T02:35:28.892Z,7.80
2022-11-25T02:38:10.344Z,7.80
2022-11-25T02:40:46.571Z,7.80
2022-11-25T02:43:14.819Z,7.80
2022-11-25T02:45:49.464Z,7.50
2022-11-25T02:48:17.023Z,7.80
2022-11-25T02:50:47.192Z,7.80
2022-11-25T02:53:16.278Z,7.80
2022-11-25T02:55:43.588Z,7.80
2022-11-25T02:58:11.061Z,7.80
2022-11-25T03:00:40.279Z,7.80
2022-11-25T03:03:09.957Z,7.70
2022-11-25T03:05:37.506Z,7.70
2022-11-25T03:08:06.356Z,7.70
2022-11-25T03:10:38.086Z,7.70
2022-11-25T03:13:07.024Z,7.70
2022-11-25T03:15:35.372Z,7.70
2022-11-25T03:18:03.756Z,7.70
2022-11-25T03:20:32.320Z,7.70
2022-11-25T03:23:00.094Z,7.60
2022-11-25T03:25:27.583Z,7.60
2022-11-25T03:27:56.620Z,7.60
2022-11-25T03:30:27.682Z,7.60
2022-11-25T03:32:58.756Z,7.60
2022-11-25T03:35:27.719Z,7.60
2022-11-25T03:37:55.507Z,7.60
2022-11-25T03:40:23.236Z,7.60
2022-11-25T03:42:50.932Z,7.60
2022-11-25T03:45:18.438Z,7.60
2022-11-25T03:47:47.177Z,7.60
2022-11-25T03:50:15.731Z,7.60
2022-11-25T03:52:44.948Z,7.60
2022-11-25T03:55:13.136Z,7.60
2022-11-25T03:57:42.952Z,7.60
2022-11-25T04:00:11.797Z,7.60
2022-11-25T04:02:57.606Z,7.60
2022-11-25T04:05:24.965Z,7.60
2022-11-25T04:07:57.730Z,7.70
2022-11-25T04:10:27.229Z,7.60
2022-11-25T04:12:55.718Z,7.70
2022-11-25T04:15:30.161Z,7.70
2022-11-25T04:17:59.135Z,7.70
2022-11-25T04:20:26.485Z,7.70
2022-11-25T04:23:02.983Z,7.70
2022-11-25T04:25:30.308Z,7.70
2022-11-25T04:27:59.080Z,7.70
2022-11-25T04:30:32.973Z,7.70
2022-11-25T04:33:02.128Z,7.70
2022-11-25T04:35:29.472Z,7.70
2022-11-25T04:37:57.795Z,7.70
2022-11-25T04:40:26.591Z,7.80
2022-11-25T04:43:11.490Z,7.80
2022-11-25T04:46:12.659Z,7.80
2022-11-25T04:48:32.461Z,7.80
2022-11-25T04:50:59.888Z,7.80
2022-11-25T04:53:27.831Z,7.80
2022-11-25T04:55:55.769Z,7.80
2022-11-25T04:58:41.884Z,7.80
2022-11-25T05:01:09.999Z,8.10
2022-11-25T05:03:46.576Z,7.90
2022-11-25T05:06:16.272Z,7.90
2022-11-25T05:08:43.902Z,7.90
2022-11-25T05:11:11.367Z,7.90
2022-11-25T05:13:38.771Z,7.90
2022-11-25T05:16:07.857Z,8.20
2022-11-25T05:18:36.136Z,7.90
2022-11-25T05:21:05.084Z,7.90
2022-11-25T05:23:37.065Z,8.00
2022-11-25T05:26:05.027Z,8.00
2022-11-25T05:28:38.952Z,8.00
2022-11-25T05:31:06.402Z,8.00
2022-11-25T05:33:33.917Z,8.00
2022-11-25T05:36:03.503Z,8.00
2022-11-25T05:38:41.075Z,8.00
2022-11-25T05:41:11.465Z,8.00
2022-11-25T05:43:40.856Z,8.10
2022-11-25T05:46:08.957Z,8.00
2022-11-25T05:48:39.976Z,8.10
2022-11-25T05:51:09.079Z,8.10
2022-11-25T05:53:36.829Z,8.10
2022-11-25T05:56:06.516Z,8.10
2022-11-25T05:58:59.678Z,8.10
2022-11-25T06:01:35.336Z,8.10
2022-11-25T06:04:04.342Z,8.10
2022-11-25T06:06:32.156Z,8.40
2022-11-25T06:09:00.212Z,8.20
2022-11-25T06:11:29.300Z,8.20
2022-11-25T06:13:58.116Z,8.20
2022-11-25T06:16:26.675Z,8.20
2022-11-25T06:19:06.603Z,8.20
2022-11-25T06:21:34.440Z,8.30
2022-11-25T06:24:01.875Z,8.30
2022-11-25T06:26:30.689Z,8.30
2022-11-25T06:28:58.084Z,8.40
2022-11-25T06:31:26.437Z,8.40
2022-11-25T06:34:14.080Z,8.40
2022-11-25T06:36:41.980Z,8.40
2022-11-25T06:39:09.568Z,8.40
2022-11-25T06:41:37.347Z,8.40
2022-11-25T06:44:04.889Z,8.40
2022-11-25T06:46:32.210Z,8.50
2022-11-25T06:49:00.512Z,8.50
2022-11-25T06:51:27.792Z,8.40
2022-11-25T06:53:55.171Z,8.50
2022-11-25T06:56:25.878Z,8.50
2022-11-25T06:58:54.519Z,8.50
2022-11-25T07:01:27.717Z,8.50
2022-11-25T07:03:58.749Z,8.50
2022-11-25T07:06:26.524Z,8.50
2022-11-25T07:08:53.964Z,8.50
2022-11-25T07:11:27.678Z,8.60
2022-11-25T07:13:57.778Z,8.60
2022-11-25T07:16:26.059Z,8.60
2022-11-25T07:18:53.475Z,8.60
2022-11-25T07:21:25.277Z,8.60
2022-11-25T07:23:53.214Z,8.50
2022-11-25T07:26:22.699Z,8.60
2022-11-25T07:28:52.431Z,8.60
2022-11-25T07:31:32.892Z,8.70
2022-11-25T07:34:09.879Z,8.70
2022-11-25T07:36:37.668Z,8.70
2022-11-25T07:39:09.052Z,8.80
2022-11-25T07:41:36.583Z,8.80
2022-11-25T07:44:05.893Z,8.80
2022-11-25T07:46:47.368Z,8.80
2022-11-25T07:49:17.848Z,8.90
2022-11-25T07:51:51.048Z,8.90
2022-11-25T07:54:18.452Z,8.90
2022-11-25T07:56:46.258Z,8.90
2022-11-25T07:59:16.744Z,9.00
2022-11-25T08:01:44.939Z,9.00
2022-11-25T08:04:18.303Z,9.00
2022-11-25T08:06:49.413Z,9.00
2022-11-25T08:09:20.173Z,9.10
2022-11-25T08:11:48.259Z,9.10
2022-11-25T08:14:17.480Z,9.10
2022-11-25T08:16:45.023Z,9.20
2022-11-25T08:19:15.509Z,9.20
2022-11-25T08:21:43.238Z,9.20
2022-11-25T08:24:18.152Z,9.30
2022-11-25T08:26:45.823Z,9.30
2022-11-25T08:29:16.284Z,9.40
2022-11-25T08:31:43.893Z,9.40
2022-11-25T08:34:21.461Z,9.40
2022-11-25T08:36:51.356Z,9.40
2022-11-25T08:42:08.128Z,9.60
2022-11-25T08:44:36.211Z,9.60
2022-11-25T08:47:03.849Z,9.60
2022-11-25T08:49:34.955Z,9.60
2022-11-25T08:52:07.681Z,9.70
2022-11-25T08:54:34.990Z,9.70
2022-11-25T08:57:02.430Z,9.70
2022-11-25T08:59:29.704Z,9.80
2022-11-25T09:01:57.248Z,9.90
2022-11-25T09:04:24.790Z,10.10
2022-11-25T09:06:52.232Z,9.90
2022-11-25T09:09:19.616Z,9.90
2022-11-25T09:11:47.077Z,10.00
2022-11-25T09:14:14.601Z,10.10
2022-11-25T09:16:42.154Z,10.10
2022-11-25T09:19:09.602Z,10.20
2022-11-25T09:21:37.190Z,10.20
2022-11-25T09:24:04.660Z,10.20
2022-11-25T09:26:35.796Z,10.30
2022-11-25T09:29:03.952Z,10.30
2022-11-25T09:31:31.528Z,10.40
2022-11-25T09:33:59.372Z,10.40
2022-11-25T09:36:26.785Z,10.40
2022-11-25T09:38:54.131Z,10.50
2022-11-25T09:42:07.986Z,10.40
2022-11-25T09:45:15.193Z,10.50
2022-11-25T09:48:25.279Z,10.50
2022-11-25T09:50:57.348Z,10.60
2022-11-25T09:53:48.000Z,10.70
2022-11-25T09:56:41.739Z,10.70
2022-11-25T09:59:31.923Z,10.70
2022-11-25T10:02:04.203Z,10.70
2022-11-25T10:04:40.441Z,10.70
2022-11-25T10:07:30.028Z,10.80
2022-11-25T10:10:01.427Z,10.80
2022-11-25T10:12:34.399Z,11.10
2022-11-25T10:15:12.557Z,10.90
2022-11-25T10:17:51.009Z,10.90
2022-11-25T10:20:30.554Z,11.00
2022-11-25T10:23:03.332Z,11.30
2022-11-25T10:25:39.105Z,11.20
2022-11-25T10:28:24.167Z,11.20
2022-11-25T10:30:54.186Z,11.30
2022-11-25T10:33:30.574Z,11.40
2022-11-25T10:36:06.527Z,11.50
2022-11-25T10:38:45.354Z,11.50
2022-11-25T10:41:17.173Z,11.70
2022-11-25T10:43:46.882Z,11.70
2022-11-25T10:47:13.040Z,11.80
2022-11-25T10:49:46.022Z,11.80
2022-11-25T10:52:14.343Z,11.90
2022-11-25T10:54:41.991Z,12.00
2022-11-25T10:57:20.652Z,12.10
2022-11-25T10:59:59.711Z,12.10
2022-11-25T11:02:28.212Z,11.80
2022-11-25T11:05:10.544Z,12.20
2022-11-25T11:07:43.803Z,12.20
2022-11-25T11:10:14.749Z,12.30
2022-11-25T11:13:02.992Z,12.50
2022-11-25T11:15:33.115Z,12.40
2022-11-25T11:18:20.947Z,12.50
2022-11-25T11:20:51.216Z,12.60
2022-11-25T11:23:19.140Z,12.50
2022-11-25T11:25:59.508Z,12.60
2022-11-25T11:28:39.607Z,12.60
2022-11-25T11:31:25.001Z,12.60
2022-11-25T11:34:11.810Z,12.60
2022-11-25T11:36:52.204Z,12.70
2022-11-25T11:39:25.585Z,12.70
2022-11-25T11:42:03.815Z,13.00
2022-11-25T11:45:11.547Z,12.80
2022-11-25T11:48:07.863Z,12.80
2022-11-25T11:50:47.501Z,12.90
2022-11-25T11:53:31.491Z,12.80
2022-11-25T11:59:42.514Z,12.90
2022-11-25T12:02:23.611Z,12.90
2022-11-25T12:05:09.785Z,13.00
2022-11-25T12:07:52.353Z,13.00
2022-11-25T12:10:44.518Z,13.00
2022-11-25T12:13:23.068Z,13.00
2022-11-25T12:16:21.990Z,13.10
2022-11-25T12:19:17.675Z,13.10
2022-11-25T12:22:01.625Z,13.00
2022-11-25T12:24:40.514Z,13.00
2022-11-25T12:27:34.742Z,13.10
2022-11-25T12:30:04.479Z,13.10
2022-11-25T12:32:51.214Z,13.10
2022-11-25T12:35:36.136Z,13.10
2022-11-25T12:38:25.539Z,13.20
2022-11-25T12:41:25.300Z,13.20
2022-11-25T12:44:24.968Z,13.20
2022-11-25T12:46:54.373Z,13.20
2022-11-25T12:49:30.353Z,13.30
2022-11-25T12:52:16.948Z,13.30
2022-11-25T12:55:09.456Z,13.30
2022-11-25T12:58:15.460Z,13.30
2022-11-25T13:01:23.295Z,13.40
2022-11-25T13:04:23.652Z,13.40
2022-11-25T13:07:10.481Z,13.50
2022-11-25T13:09:46.616Z,13.60
2022-11-25T13:12:27.872Z,13.60
2022-11-25T13:15:05.697Z,13.70
2022-11-25T13:17:39.489Z,13.60
2022-11-25T13:20:33.679Z,13.60
2022-11-25T13:23:10.808Z,13.70
2022-11-25T13:25:41.148Z,13.70
2022-11-25T13:28:34.423Z,13.80
2022-11-25T13:31:14.766Z,13.80
2022-11-25T13:33:45.335Z,13.90
2022-11-25T13:36:21.347Z,13.90
2022-11-25T13:38:48.962Z,13.90
2022-11-25T13:41:16.263Z,14.00
2022-11-25T13:44:02.544Z,14.00
2022-11-25T13:46:43.095Z,14.00
2022-11-25T13:49:31.276Z,14.00
2022-11-25T13:52:02.945Z,14.00
2022-11-25T13:54:48.174Z,14.10
2022-11-25T13:57:23.497Z,14.30
2022-11-25T13:59:58.145Z,14.10
2022-11-25T14:02:28.415Z,14.10
2022-11-25T14:05:10.949Z,14.10
2022-11-25T14:07:38.443Z,14.20
2022-11-25T14:10:39.468Z,14.20
2022-11-25T14:13:16.122Z,14.20
2022-11-25T14:16:14.637Z,14.20
2022-11-25T14:19:43.133Z,14.20
2022-11-25T14:22:18.819Z,14.20
2022-11-25T14:24:50.304Z,14.20
2022-11-25T14:27:25.974Z,14.20
2022-11-25T14:30:06.657Z,14.10
2022-11-25T14:32:40.362Z,14.20
2022-11-25T14:35:10.502Z,14.10
2022-11-25T14:37:45.393Z,14.20
2022-11-25T14:40:22.420Z,14.10
2022-11-25T14:42:53.913Z,14.20
2022-11-25T14:45:31.276Z,14.20
2022-11-25T14:47:58.739Z,14.20
2022-11-25T14:50:34.567Z,14.20
2022-11-25T14:53:07.621Z,14.10
2022-11-25T14:55:36.024Z,14.20
2022-11-25T14:58:03.910Z,14.20
2022-11-25T15:00:31.243Z,14.20
2022-11-25T15:03:01.368Z,14.20
2022-11-25T15:05:34.995Z,14.10
2022-11-25T15:08:10.290Z,14.10
2022-11-25T15:10:56.756Z,14.20
2022-11-25T15:13:35.679Z,14.10
2022-11-25T15:16:06.124Z,14.10
2022-11-25T15:18:35.512Z,14.10
2022-11-25T15:21:03.943Z,14.10
2022-11-25T15:23:36.924Z,14.10
2022-11-25T15:26:14.252Z,14.00
2022-11-25T15:28:41.863Z,14.00
2022-11-25T15:31:18.700Z,14.00
2022-11-25T15:33:54.405Z,13.90
2022-11-25T15:36:23.908Z,13.90
2022-11-25T15:38:51.861Z,13.90
2022-11-25T15:41:32.448Z,13.80
2022-11-25T15:44:02.492Z,13.80
2022-11-25T15:46:32.109Z,13.80
2022-11-25T15:49:03.848Z,13.80
2022-11-25T15:51:41.632Z,13.90
2022-11-25T15:54:13.078Z,13.70
2022-11-25T15:56:46.872Z,13.60
2022-11-25T15:59:47.650Z,13.60
2022-11-25T16:02:43.581Z,13.60
2022-11-25T16:05:14.197Z,13.50
2022-11-25T16:07:53.664Z,13.50
2022-11-25T16:10:22.537Z,13.50
2022-11-25T16:13:28.738Z,13.50
2022-11-25T16:15:55.955Z,13.40
2022-11-25T16:18:42.598Z,13.40
2022-11-25T16:21:19.790Z,13.40
2022-11-25T16:23:50.690Z,13.30
2022-11-25T16:26:25.353Z,13.30
2022-11-25T16:28:55.972Z,13.30
2022-11-25T16:31:24.561Z,13.30
2022-11-25T16:34:17.390Z,13.30
2022-11-25T16:36:45.363Z,13.30
2022-11-25T16:39:13.976Z,13.30
2022-11-25T16:41:42.220Z,13.30
2022-11-25T16:44:21.114Z,13.30
2022-11-25T16:46:48.501Z,13.30
2022-11-25T16:49:18.283Z,13.30
2022-11-25T16:51:45.717Z,13.30
2022-11-25T16:54:13.112Z,13.30
2022-11-25T16:56:43.168Z,13.30
2022-11-25T16:59:33.817Z,13.30
2022-11-25T17:02:01.882Z,13.30
2022-11-25T17:04:29.288Z,13.30
2022-11-25T17:07:30.518Z,13.30
2022-11-25T17:09:44.950Z,13.30
2022-11-25T17:12:18.030Z,13.30
2022-11-25T17:14:48.397Z,13.30
2022-11-25T17:17:24.384Z,13.30
2022-11-25T17:19:53.496Z,13.30
2022-11-25T17:22:23.949Z,13.20
2022-11-25T17:24:51.742Z,13.20
2022-11-25T17:27:25.475Z,13.20
2022-11-25T17:29:54.326Z,13.20
2022-11-25T17:32:22.226Z,13.20
2022-11-25T17:34:49.687Z,13.10
2022-11-25T17:37:20.354Z,13.10
2022-11-25T17:39:47.727Z,13.10
2022-11-25T17:42:21.811Z,13.10
2022-11-25T17:44:52.989Z,13.10
2022-11-25T17:47:21.740Z,13.10
2022-11-25T17:49:49.613Z,13.10
2022-11-25T17:52:17.374Z,13.10
2022-11-25T17:54:44.824Z,13.10
2022-11-25T17:57:17.076Z,13.10
2022-11-25T17:59:44.677Z,13.10
2022-11-25T18:02:22.598Z,13.10
2022-11-25T18:04:50.106Z,13.10
2022-11-25T18:07:18.439Z,13.10
2022-11-25T18:09:45.857Z,13.10
2022-11-25T18:12:24.982Z,13.00
2022-11-25T18:14:52.416Z,13.00
2022-11-25T18:17:19.933Z,13.00
2022-11-25T18:19:54.540Z,13.10
2022-11-25T18:22:24.014Z,13.10
2022-11-25T18:24:52.607Z,13.10
2022-11-25T18:27:22.341Z,13.00
2022-11-25T18:29:50.384Z,13.00
2022-11-25T18:32:17.946Z,12.90
2022-11-25T18:34:45.521Z,12.90
2022-11-25T18:37:12.996Z,12.90
2022-11-25T18:39:40.520Z,12.90
2022-11-25T18:42:19.355Z,12.90
2022-11-25T18:44:48.268Z,12.90
2022-11-25T18:47:15.643Z,12.90
2022-11-25T18:49:43.028Z,12.90
2022-11-25T18:52:10.480Z,12.90
2022-11-25T18:54:38.131Z,12.90
2022-11-25T18:57:06.099Z,12.90
2022-11-25T18:59:36.034Z,12.90
2022-11-25T19:02:03.594Z,12.90
2022-11-25T19:04:31.134Z,12.80
2022-11-25T19:06:58.482Z,12.90
2022-11-25T19:09:25.789Z,12.80
2022-11-25T19:11:55.785Z,12.80
2022-11-25T19:14:37.434Z,12.80
2022-11-25T19:17:08.684Z,12.80
2022-11-25T19:19:37.992Z,12.80
2022-11-25T19:22:15.642Z,12.80
2022-11-25T19:24:43.208Z,12.80
2022-11-25T19:27:17.943Z,12.80
2022-11-25T19:29:46.248Z,12.80
2022-11-25T19:32:21.712Z,12.80
2022-11-25T19:34:54.647Z,12.80
2022-11-25T19:37:23.135Z,12.80
2022-11-25T19:39:52.799Z,12.90
2022-11-25T19:42:20.148Z,12.90
2022-11-25T19:44:47.984Z,12.80
2022-11-25T19:47:26.637Z,12.80
2022-11-25T19:49:57.848Z,12.80
2022-11-25T19:52:34.915Z,12.80
2022-11-25T19:55:10.788Z,12.80
2022-11-25T19:57:38.228Z,12.80
2022-11-25T20:00:07.612Z,12.70
2022-11-25T20:02:36.509Z,12.70
2022-11-25T20:05:04.731Z,12.70
2022-11-25T20:07:32.648Z,12.70
2022-11-25T20:10:24.838Z,12.70
2022-11-25T20:12:53.839Z,12.70
2022-11-25T20:15:22.744Z,12.70
2022-11-25T20:17:55.173Z,12.70
2022-11-25T20:20:25.076Z,12.70
2022-11-25T20:22:59.027Z,12.90
2022-11-25T20:25:27.663Z,12.60
2022-11-25T20:27:55.839Z,12.60
2022-11-25T20:30:27.153Z,12.70
2022-11-25T20:32:55.531Z,12.60
2022-11-25T20:35:25.415Z,12.60
2022-11-25T20:37:58.103Z,12.60
2022-11-25T20:40:33.320Z,12.60
2022-11-25T20:43:01.500Z,12.60
2022-11-25T20:45:29.147Z,12.50
2022-11-25T20:47:58.984Z,12.50
2022-11-25T20:50:29.924Z,12.70
2022-11-25T20:52:58.365Z,12.50
2022-11-25T20:55:26.044Z,12.40
2022-11-25T20:57:53.377Z,12.40
2022-11-25T21:00:24.574Z,12.30
2022-11-25T21:02:53.547Z,12.30
2022-11-25T21:05:21.459Z,12.30
2022-11-25T21:07:50.531Z,12.30
2022-11-25T21:10:25.088Z,12.30
2022-11-25T21:12:53.259Z,12.30
2022-11-25T21:15:25.673Z,12.20
2022-11-25T21:17:53.288Z,12.20
2022-11-25T21:20:21.044Z,12.20
2022-11-25T21:22:52.395Z,12.20
2022-11-25T21:25:22.182Z,12.20
2022-11-25T21:27:51.937Z,12.20
2022-11-25T21:30:25.340Z,12.20
2022-11-25T21:32:57.651Z,12.20
2022-11-25T21:35:30.616Z,12.20
2022-11-25T21:38:01.783Z,12.20
2022-11-25T21:40:39.640Z,12.10
2022-11-25T21:43:21.621Z,12.10
2022-11-25T21:45:53.018Z,12.00
2022-11-25T21:48:24.237Z,12.00
2022-11-25T21:50:52.406Z,12.00
2022-11-25T21:53:20.006Z,12.00
2022-11-25T21:55:48.258Z,11.90
2022-11-25T21:58:18.680Z,11.90
2022-11-25T22:00:51.827Z,11.80
2022-11-25T22:03:20.919Z,11.80
2022-11-25T22:05:48.868Z,11.80
2022-11-25T22:08:17.141Z,11.70
2022-11-25T22:10:47.752Z,11.80
2022-11-25T22:13:27.410Z,11.70
2022-11-25T22:15:57.653Z,11.70
2022-11-25T22:18:29.852Z,11.70
2022-11-25T22:20:58.094Z,11.60
2022-11-25T22:23:25.722Z,11.60
2022-11-25T22:25:53.517Z,11.60
2022-11-25T22:28:28.439Z,11.60
2022-11-25T22:31:00.925Z,11.50
2022-11-25T22:33:34.636Z,11.50
2022-11-25T22:36:02.798Z,11.50
2022-11-25T22:38:30.766Z,11.50
2022-11-25T22:41:03.721Z,11.40
2022-11-25T22:43:37.990Z,11.40
2022-11-25T22:46:05.611Z,11.30
2022-11-25T22:48:38.136Z,11.20
2022-11-25T22:51:10.979Z,11.20
2022-11-25T22:53:38.350Z,11.20
2022-11-25T22:56:13.464Z,11.10
2022-11-25T22:58:40.783Z,11.10
2022-11-25T23:01:15.797Z,11.10
2022-11-25T23:03:43.994Z,11.10
2022-11-25T23:06:15.459Z,11.00
2022-11-25T23:08:42.988Z,11.00
2022-11-25T23:11:17.437Z,11.00
2022-11-25T23:13:44.995Z,10.90
2022-11-25T23:16:12.489Z,10.90
2022-11-25T23:18:45.327Z,10.80
2022-11-25T23:21:22.762Z,10.80
2022-11-25T23:23:50.864Z,10.80
2022-11-25T23:26:18.244Z,10.80
2022-11-25T23:28:46.019Z,10.70
2022-11-25T23:31:14.778Z,10.70
2022-11-25T23:33:48.435Z,10.60
2022-11-25T23:36:22.035Z,10.60
2022-11-25T23:38:52.373Z,10.60
2022-11-25T23:41:23.127Z,10.60
2022-11-25T23:43:50.574Z,10.60
2022-11-25T23:46:21.369Z,10.50
2022-11-25T23:49:01.943Z,10.40
2022-11-25T23:51:30.137Z,10.40
2022-11-25T23:53:58.589Z,10.40
2022-11-25T23:56:27.673Z,10.40
2022-11-25T23:58:55.175Z,10.40
